Time;durP1;ratioP1;P1;durP2;ratioP2;P2;SDS_P1;SDS_P2;PMS_P1;PMS_P2;Temp;Humidity;BMP_temperature;BMP_pressure;BME280_temperature;BME280_humidity;BME280_pressure;Samples;Min_cycle;Max_cycle;Signal;HPM_P1;HPM_P2
2022/07/20 00:00:14;;;;;;;2.40;0.60;;;20.10;99.90;;;;;;4147092;28;20068;-86
2022/07/20 00:02:36;;;;;;;0.57;0.57;;;19.90;99.90;;;;;;4142555;28;20628;-85
2022/07/20 00:04:57;;;;;;;1.35;0.50;;;19.80;99.90;;;;;;4148489;28;20096;-88
2022/07/20 00:07:19;;;;;;;0.70;0.70;;;19.80;99.90;;;;;;4144700;28;20170;-86
2022/07/20 00:12:18;;;;;;;3.80;0.60;;;19.50;99.90;;;;;;4163010;28;20662;-86
2022/07/20 00:14:39;;;;;;;1.75;0.70;;;19.50;99.90;;;;;;4158838;28;20441;-86
2022/07/20 00:17:00;;;;;;;0.60;0.60;;;19.60;99.90;;;;;;4133256;28;20088;-86
2022/07/20 00:19:21;;;;;;;1.23;0.60;;;19.50;99.90;;;;;;4148229;28;20651;-86
2022/07/20 00:21:42;;;;;;;0.57;0.57;;;19.50;99.90;;;;;;4163170;28;20055;-86
2022/07/20 00:24:03;;;;;;;1.42;0.60;;;19.40;99.90;;;;;;4148032;28;20105;-86
2022/07/20 00:26:24;;;;;;;0.60;0.60;;;19.30;99.90;;;;;;4148337;28;20990;-86
2022/07/20 00:28:45;;;;;;;0.70;0.70;;;19.30;99.90;;;;;;4148056;28;20088;-86
2022/07/20 00:31:06;;;;;;;1.52;0.70;;;19.30;99.90;;;;;;4148320;28;20092;-86
2022/07/20 00:33:28;;;;;;;1.83;0.60;;;19.40;99.90;;;;;;4148235;28;20064;-86
2022/07/20 00:35:51;;;;;;;0.60;0.60;;;19.50;99.90;;;;;;4148091;28;20060;-86
2022/07/20 00:38:14;;;;;;;;;;;19.40;99.90;;;;;;4148510;28;20052;-86
2022/07/20 00:40:35;;;;;;;0.60;0.60;;;19.30;99.90;;;;;;4168284;28;19932;-86
2022/07/20 00:42:56;;;;;;;0.75;0.75;;;19.10;99.90;;;;;;4162752;28;20424;-86
2022/07/20 00:45:19;;;;;;;0.70;0.70;;;19.10;99.90;;;;;;4148242;28;20154;-85
2022/07/20 00:47:41;;;;;;;1.70;0.70;;;18.80;99.90;;;;;;4148003;28;20069;-85
2022/07/20 00:50:01;;;;;;;0.75;0.75;;;18.80;99.90;;;;;;4147896;28;20072;-86
2022/07/20 00:52:24;;;;;;;0.70;0.70;;;18.90;99.90;;;;;;4162790;28;20133;-87
2022/07/20 00:54:48;;;;;;;1.52;0.60;;;18.90;99.90;;;;;;4131709;28;20568;-86
2022/07/20 00:57:08;;;;;;;0.70;0.70;;;19.00;99.90;;;;;;4144190;28;20053;-85
2022/07/20 00:59:31;;;;;;;1.65;0.70;;;19.00;99.90;;;;;;4161980;28;20103;-85
2022/07/20 01:02:15;;;;;;;0.77;0.77;;;19.00;99.90;;;;;;4147392;28;20084;-86
2022/07/20 01:04:36;;;;;;;0.80;0.70;;;18.90;99.90;;;;;;4098426;28;20062;-86
2022/07/20 01:06:58;;;;;;;0.70;0.70;;;18.80;99.90;;;;;;4111544;28;20065;-86
2022/07/20 01:09:20;;;;;;;1.35;0.70;;;18.80;99.90;;;;;;4111496;28;20494;-86
2022/07/20 01:11:41;;;;;;;0.73;0.73;;;18.80;99.90;;;;;;4111744;28;20802;-86
2022/07/20 01:14:06;;;;;;;1.30;0.70;;;18.70;99.90;;;;;;4098300;28;20057;-85
2022/07/20 01:16:27;;;;;;;0.70;0.68;;;18.70;99.90;;;;;;4098282;28;20093;-86
2022/07/20 01:18:48;;;;;;;0.63;0.63;;;18.70;99.90;;;;;;4097784;28;20054;-86
2022/07/20 01:21:11;;;;;;;2.95;0.63;;;18.70;99.90;;;;;;4098254;28;20045;-86
2022/07/20 01:23:31;;;;;;;0.80;0.80;;;18.70;99.90;;;;;;4097709;28;20463;-86
2022/07/20 01:25:53;;;;;;;0.80;0.80;;;18.70;99.90;;;;;;4098170;28;20094;-86
2022/07/20 01:28:14;;;;;;;0.70;0.70;;;18.60;99.90;;;;;;4097934;28;20094;-85
2022/07/20 01:30:36;;;;;;;0.70;0.70;;;18.40;99.90;;;;;;4111913;28;20554;-85
2022/07/20 01:32:57;;;;;;;0.70;0.70;;;18.30;99.90;;;;;;4095895;29;20114;-85
2022/07/20 01:35:19;;;;;;;7.45;0.80;;;18.20;99.90;;;;;;4093916;28;20069;-85
2022/07/20 01:37:39;;;;;;;1.38;0.60;;;18.20;99.90;;;;;;4098062;28;20537;-85
2022/07/20 01:40:00;;;;;;;0.70;0.70;;;18.20;99.90;;;;;;4097976;28;20067;-86
2022/07/20 01:42:20;;;;;;;0.80;0.80;;;18.00;99.90;;;;;;4123410;28;20057;-86
2022/07/20 01:44:42;;;;;;;1.70;0.73;;;17.80;99.90;;;;;;4135801;28;20170;-85
2022/07/20 01:47:04;;;;;;;0.70;0.70;;;17.70;99.90;;;;;;4134848;28;20121;-85
2022/07/20 01:49:28;;;;;;;0.68;0.68;;;17.80;99.90;;;;;;4147409;28;20115;-86
2022/07/20 01:51:49;;;;;;;0.70;0.70;;;17.90;99.90;;;;;;4130830;28;20544;-86
2022/07/20 01:54:10;;;;;;;0.60;0.60;;;17.90;99.90;;;;;;4140242;28;20076;-86
2022/07/20 01:56:30;;;;;;;1.45;0.70;;;17.90;99.90;;;;;;4147189;28;20207;-86
2022/07/20 01:58:51;;;;;;;3.00;0.80;;;17.70;99.90;;;;;;4147217;28;20056;-86
2022/07/20 02:01:13;;;;;;;0.80;0.80;;;17.60;99.90;;;;;;4146938;28;20429;-85
2022/07/20 02:03:37;;;;;;;3.03;0.77;;;17.60;99.90;;;;;;4161499;28;20064;-85
2022/07/20 02:05:58;;;;;;;0.73;0.73;;;17.50;99.90;;;;;;4147053;28;20594;-86
2022/07/20 02:08:19;;;;;;;1.23;0.70;;;17.40;99.90;;;;;;4161567;28;20149;-86
2022/07/20 02:10:41;;;;;;;0.70;0.70;;;17.30;99.90;;;;;;4161925;28;20577;-86
2022/07/20 02:13:03;;;;;;;1.48;0.70;;;17.40;99.90;;;;;;4139353;28;20057;-85
2022/07/20 02:18:07;;;;;;;0.85;0.85;;;17.10;99.90;;;;;;4151582;28;20104;-85
2022/07/20 02:20:28;;;;;;;1.73;0.80;;;16.90;99.90;;;;;;4161506;28;20377;-85
2022/07/20 02:22:48;;;;;;;0.80;0.80;;;16.80;99.90;;;;;;4137593;28;20057;-85
2022/07/20 02:25:09;;;;;;;1.30;1.30;;;16.70;99.90;;;;;;4132752;28;20119;-86
2022/07/20 02:27:30;;;;;;;1.20;1.05;;;16.70;99.90;;;;;;4147013;28;20457;-85
2022/07/20 02:29:52;;;;;;;0.90;0.90;;;16.60;99.90;;;;;;4147019;28;20052;-86
2022/07/20 02:32:14;;;;;;;0.85;0.85;;;16.70;99.90;;;;;;4164637;28;20145;-85
2022/07/20 02:34:36;;;;;;;0.90;0.90;;;16.70;99.90;;;;;;4150002;28;20053;-85
2022/07/20 02:36:56;;;;;;;1.13;0.82;;;16.90;99.90;;;;;;4150234;28;20543;-85
2022/07/20 02:39:17;;;;;;;1.35;0.85;;;17.10;99.90;;;;;;4149666;28;20800;-85
2022/07/20 02:41:38;;;;;;;1.08;0.80;;;17.00;99.90;;;;;;4149862;28;20630;-86
2022/07/20 02:44:00;;;;;;;0.90;0.90;;;16.90;99.90;;;;;;4149920;28;20213;-85
2022/07/20 02:46:21;;;;;;;1.10;0.90;;;16.60;99.90;;;;;;4150152;28;20132;-85
2022/07/20 02:48:41;;;;;;;0.90;0.90;;;16.80;99.90;;;;;;4164541;28;20791;-85
2022/07/20 02:51:02;;;;;;;2.03;0.90;;;16.80;99.90;;;;;;4149888;28;20048;-85
2022/07/20 02:53:23;;;;;;;0.90;0.90;;;16.60;99.90;;;;;;4164665;28;20508;-85
2022/07/20 02:55:44;;;;;;;0.80;0.80;;;16.80;99.90;;;;;;4150042;28;20097;-85
2022/07/20 02:58:05;;;;;;;0.80;0.80;;;17.00;99.90;;;;;;4164565;28;20600;-85
2022/07/20 03:00:26;;;;;;;1.35;1.25;;;17.00;99.90;;;;;;4149247;28;20052;-87
2022/07/20 03:02:47;;;;;;;1.00;1.00;;;17.00;99.90;;;;;;4149799;28;20049;-86
2022/07/20 03:05:07;;;;;;;0.80;0.80;;;16.70;99.90;;;;;;4149551;28;20057;-85
2022/07/20 03:07:28;;;;;;;1.85;0.80;;;16.80;99.90;;;;;;4149379;28;20071;-85
2022/07/20 03:09:49;;;;;;;0.80;0.80;;;16.90;99.90;;;;;;4147320;28;20559;-85
2022/07/20 03:12:09;;;;;;;1.00;0.85;;;16.90;99.90;;;;;;4145364;28;20165;-85
2022/07/20 03:14:31;;;;;;;0.80;0.80;;;17.00;99.90;;;;;;4149414;28;20057;-85
2022/07/20 03:16:53;;;;;;;0.90;0.90;;;16.80;99.90;;;;;;4163735;28;20063;-85
2022/07/20 03:19:13;;;;;;;0.93;0.93;;;16.90;99.90;;;;;;4143096;28;20095;-85
2022/07/20 03:21:34;;;;;;;1.08;0.90;;;16.90;99.90;;;;;;4164238;28;20086;-87
2022/07/20 03:23:55;;;;;;;1.02;0.93;;;16.80;99.90;;;;;;4135906;28;20062;-85
2022/07/20 03:26:15;;;;;;;0.90;0.90;;;16.70;99.90;;;;;;4139155;28;20760;-85
2022/07/20 03:28:38;;;;;;;0.85;0.85;;;16.50;99.90;;;;;;4149658;28;20048;-85
2022/07/20 03:31:00;;;;;;;4.43;1.77;;;16.40;99.90;;;;;;4132997;28;20054;-85
2022/07/20 03:33:20;;;;;;;1.52;0.93;;;16.50;99.90;;;;;;4144665;28;20894;-85
2022/07/20 03:35:41;;;;;;;0.80;0.80;;;16.50;99.90;;;;;;4149172;28;20678;-85
2022/07/20 03:38:03;;;;;;;2.05;1.40;;;16.40;99.90;;;;;;4163744;28;20095;-85
2022/07/20 03:40:24;;;;;;;1.10;1.10;;;16.10;99.90;;;;;;4132449;28;20085;-85
2022/07/20 03:42:45;;;;;;;1.60;0.90;;;15.90;99.90;;;;;;4142227;28;20108;-85
2022/07/20 03:45:07;;;;;;;1.02;0.90;;;16.00;99.90;;;;;;4149169;28;20092;-86
2022/07/20 03:47:28;;;;;;;0.90;0.90;;;15.90;99.90;;;;;;4148890;28;20045;-86
2022/07/20 03:49:50;;;;;;;0.90;0.90;;;15.80;99.90;;;;;;4148744;28;20075;-86
2022/07/20 03:52:11;;;;;;;2.92;1.00;;;15.80;99.90;;;;;;4139420;28;20061;-86
2022/07/20 03:54:35;;;;;;;2.47;0.90;;;15.70;99.90;;;;;;4135885;28;20076;-85
2022/07/20 03:56:57;;;;;;;1.20;1.20;;;15.60;99.90;;;;;;4148693;28;20061;-85
2022/07/20 03:59:18;;;;;;;1.00;1.00;;;15.60;99.90;;;;;;4148523;28;20101;-85
2022/07/20 04:01:39;;;;;;;1.20;0.90;;;15.60;99.90;;;;;;4148362;28;20041;-85
2022/07/20 04:04:01;;;;;;;1.10;1.10;;;15.50;99.90;;;;;;4148775;28;20132;-85
2022/07/20 04:06:22;;;;;;;1.15;1.05;;;15.50;99.90;;;;;;4148333;28;20049;-85
2022/07/20 04:08:43;;;;;;;1.77;0.95;;;15.60;99.90;;;;;;4148260;28;20465;-85
2022/07/20 04:11:04;;;;;;;1.17;1.02;;;15.70;99.90;;;;;;4148288;28;20122;-86
2022/07/20 04:13:26;;;;;;;1.20;1.20;;;15.70;99.90;;;;;;4147855;28;20326;-85
2022/07/20 04:15:47;;;;;;;2.13;0.90;;;15.60;99.90;;;;;;4144531;28;20064;-85
2022/07/20 04:18:10;;;;;;;1.10;1.00;;;15.80;99.90;;;;;;4137849;28;20161;-85
2022/07/20 04:20:31;;;;;;;2.70;1.00;;;15.80;99.90;;;;;;4139061;28;20094;-85
2022/07/20 04:22:51;;;;;;;1.23;1.23;;;15.70;99.90;;;;;;4162194;28;20072;-85
2022/07/20 04:25:12;;;;;;;2.22;1.25;;;15.70;99.90;;;;;;4146881;28;20433;-86
2022/07/20 04:27:33;;;;;;;1.95;1.08;;;15.60;99.90;;;;;;4143858;28;20061;-85
2022/07/20 04:29:54;;;;;;;1.52;0.82;;;15.50;99.90;;;;;;4148192;28;20104;-85
2022/07/20 04:32:16;;;;;;;1.15;0.90;;;15.50;99.90;;;;;;4148221;28;20107;-85
2022/07/20 04:34:37;;;;;;;1.10;1.00;;;15.60;99.90;;;;;;4132109;28;20103;-85
2022/07/20 04:37:00;;;;;;;1.42;0.90;;;15.70;99.90;;;;;;4142967;28;20700;-86
2022/07/20 04:39:21;;;;;;;2.30;1.10;;;15.80;99.90;;;;;;4148244;28;20490;-85
2022/07/20 04:41:42;;;;;;;0.98;0.98;;;15.80;99.90;;;;;;4148087;28;20053;-86
2022/07/20 04:44:05;;;;;;;2.05;1.10;;;15.80;99.90;;;;;;4148124;28;20052;-85
2022/07/20 04:46:28;;;;;;;0.80;0.80;;;15.70;99.90;;;;;;4162885;28;20163;-85
2022/07/20 04:48:49;;;;;;;2.45;1.08;;;15.60;99.90;;;;;;4148068;28;20124;-88
2022/07/20 04:51:11;;;;;;;1.00;1.00;;;15.60;99.90;;;;;;4132048;28;20057;-87
2022/07/20 04:53:32;;;;;;;1.98;0.90;;;15.50;99.90;;;;;;4161758;28;20111;-87
2022/07/20 04:55:54;;;;;;;0.80;0.80;;;15.70;99.90;;;;;;4148318;28;20065;-87
2022/07/20 04:58:15;;;;;;;0.98;0.98;;;15.60;99.90;;;;;;4162704;28;20111;-87
2022/07/20 05:00:39;;;;;;;0.88;0.80;;;15.70;99.90;;;;;;4147696;28;20795;-88
2022/07/20 05:03:01;;;;;;;3.33;0.90;;;15.80;99.90;;;;;;4148162;28;20134;-87
2022/07/20 05:05:25;;;;;;;0.90;0.90;;;16.00;99.90;;;;;;4139888;28;20061;-87
2022/07/20 05:07:46;;;;;;;0.90;0.90;;;16.10;99.90;;;;;;4131790;28;20113;-87
2022/07/20 05:10:07;;;;;;;0.90;0.90;;;16.10;99.90;;;;;;4131712;28;20474;-87
2022/07/20 05:12:28;;;;;;;1.48;1.02;;;16.20;99.90;;;;;;4162140;28;20052;-87
2022/07/20 05:14:48;;;;;;;1.05;1.05;;;16.30;99.90;;;;;;4162449;28;20111;-87
2022/07/20 05:17:11;;;;;;;1.30;1.10;;;16.30;99.90;;;;;;4162317;28;20519;-87
2022/07/20 05:19:31;;;;;;;1.02;0.90;;;16.30;99.90;;;;;;4146571;28;20064;-85
2022/07/20 05:21:52;;;;;;;1.60;0.95;;;16.30;99.90;;;;;;4143134;28;20049;-86
2022/07/20 05:24:13;;;;;;;2.13;0.90;;;16.30;99.90;;;;;;4156002;28;20138;-86
2022/07/20 05:26:33;;;;;;;2.58;0.80;;;16.30;99.90;;;;;;4145420;28;20064;-85
2022/07/20 05:28:55;;;;;;;1.08;1.02;;;16.30;99.90;;;;;;4130597;28;20118;-85
2022/07/20 05:31:16;;;;;;;1.73;0.95;;;16.20;99.90;;;;;;4156347;28;20133;-85
2022/07/20 05:33:37;;;;;;;2.22;0.90;;;16.20;99.90;;;;;;4161724;28;20079;-86
2022/07/20 05:36:00;;;;;;;1.95;0.90;;;16.30;99.90;;;;;;4162204;28;20130;-85
2022/07/20 05:38:21;;;;;;;1.38;1.10;;;16.40;99.90;;;;;;4130970;28;20105;-85
2022/07/20 05:40:41;;;;;;;1.00;1.00;;;16.50;99.90;;;;;;4140178;28;20049;-86
2022/07/20 05:43:02;;;;;;;1.02;0.85;;;16.60;99.90;;;;;;4159518;28;20096;-86
2022/07/20 05:45:24;;;;;;;0.88;0.88;;;16.70;99.90;;;;;;4131018;28;20124;-85
2022/07/20 05:47:44;;;;;;;1.10;1.10;;;16.80;99.90;;;;;;4145950;28;20088;-86
2022/07/20 05:50:06;;;;;;;1.55;1.20;;;16.80;99.90;;;;;;4157124;28;20137;-86
2022/07/20 05:52:28;;;;;;;1.08;0.98;;;16.90;99.90;;;;;;4138849;28;20061;-86
2022/07/20 05:54:48;;;;;;;1.70;0.80;;;17.00;99.90;;;;;;4146712;28;20168;-86
2022/07/20 05:57:09;;;;;;;2.58;0.90;;;17.10;99.90;;;;;;4145680;28;20056;-86
2022/07/20 05:59:32;;;;;;;0.82;0.82;;;17.20;99.90;;;;;;4145090;28;20052;-86
2022/07/20 06:01:54;;;;;;;2.08;0.90;;;17.20;99.90;;;;;;4150851;28;20075;-86
2022/07/20 06:04:15;;;;;;;1.15;1.05;;;17.30;99.90;;;;;;4155752;28;20053;-86
2022/07/20 06:06:36;;;;;;;0.80;0.80;;;17.50;99.90;;;;;;4161295;28;20044;-85
2022/07/20 06:08:58;;;;;;;1.77;0.90;;;17.60;99.90;;;;;;4148713;28;20052;-84
2022/07/20 06:11:39;;;;;;;1.33;1.00;;;17.70;99.90;;;;;;4152032;28;20048;-84
2022/07/20 06:14:01;;;;;;;2.55;1.45;;;17.80;99.90;;;;;;4148644;28;20140;-85
2022/07/20 06:16:22;;;;;;;1.27;0.90;;;17.90;99.90;;;;;;4149518;28;20143;-84
2022/07/20 06:18:43;;;;;;;2.53;0.87;;;18.00;99.90;;;;;;4141670;28;20436;-84
2022/07/20 06:21:04;;;;;;;0.82;0.70;;;18.10;99.90;;;;;;4149212;28;20133;-84
2022/07/20 06:23:25;;;;;;;1.58;0.80;;;18.80;99.90;;;;;;4149095;28;20716;-84
2022/07/20 06:25:45;;;;;;;0.80;0.80;;;19.30;99.90;;;;;;4164271;28;20052;-84
2022/07/20 06:28:07;;;;;;;2.85;0.80;;;19.20;99.90;;;;;;4149096;28;20100;-85
2022/07/20 06:30:27;;;;;;;0.70;0.70;;;19.30;99.90;;;;;;4149385;28;20064;-84
2022/07/20 06:32:48;;;;;;;0.70;0.70;;;19.90;99.90;;;;;;4149211;28;20476;-84
2022/07/20 06:35:10;;;;;;;1.27;0.80;;;19.90;99.90;;;;;;4149324;28;20129;-85
2022/07/20 06:37:30;;;;;;;4.97;0.68;;;20.30;99.90;;;;;;4149111;28;20121;-85
2022/07/20 06:39:51;;;;;;;2.13;0.68;;;20.50;99.90;;;;;;4149245;28;20053;-85
2022/07/20 06:42:12;;;;;;;0.68;0.68;;;20.70;99.90;;;;;;4163714;28;20057;-85
2022/07/20 06:44:33;;;;;;;3.92;0.70;;;20.60;99.90;;;;;;4163969;28;20107;-85
2022/07/20 06:46:53;;;;;;;0.60;0.60;;;21.00;99.90;;;;;;4149095;28;20229;-85
2022/07/20 06:49:17;;;;;;;0.70;0.70;;;21.10;99.90;;;;;;4163805;28;20052;-85
2022/07/20 06:51:38;;;;;;;0.98;0.70;;;21.00;99.90;;;;;;4163690;28;20606;-85
2022/07/20 06:53:59;;;;;;;2.42;0.60;;;21.20;99.90;;;;;;4149125;28;20065;-85
2022/07/20 06:56:21;;;;;;;1.05;0.60;;;21.30;99.90;;;;;;4148788;28;20153;-85
2022/07/20 06:58:41;;;;;;;2.67;0.80;;;21.60;99.60;;;;;;4163754;28;20111;-85
2022/07/20 07:01:02;;;;;;;0.60;0.60;;;21.70;99.00;;;;;;4148596;28;20126;-85
2022/07/20 07:03:24;;;;;;;0.60;0.60;;;21.90;99.80;;;;;;4148446;28;20178;-85
2022/07/20 07:05:44;;;;;;;2.05;0.52;;;22.20;99.10;;;;;;4148854;28;20104;-85
2022/07/20 07:08:06;;;;;;;0.60;0.60;;;22.30;98.50;;;;;;4148939;28;20052;-85
2022/07/20 07:10:27;;;;;;;4.97;0.57;;;22.40;97.50;;;;;;4163420;28;20508;-85
2022/07/20 07:12:47;;;;;;;2.47;0.50;;;22.60;96.70;;;;;;4153556;28;20052;-85
2022/07/20 07:15:08;;;;;;;0.45;0.45;;;23.00;95.60;;;;;;4148637;28;20057;-85
2022/07/20 07:17:30;;;;;;;0.88;0.60;;;23.10;91.80;;;;;;4131988;28;20140;-85
2022/07/20 07:19:51;;;;;;;3.53;0.98;;;23.40;93.80;;;;;;4159255;28;20172;-85
2022/07/20 07:22:13;;;;;;;0.80;0.50;;;23.50;93.60;;;;;;4148977;28;20602;-86
2022/07/20 07:24:34;;;;;;;0.40;0.40;;;23.50;94.30;;;;;;4147163;28;20811;-85
2022/07/20 07:26:55;;;;;;;1.63;0.50;;;23.60;93.20;;;;;;4116451;28;20147;-85
2022/07/20 07:29:19;;;;;;;0.40;0.40;;;23.60;93.10;;;;;;4127073;28;20128;-86
2022/07/20 07:31:40;;;;;;;0.98;0.47;;;23.80;91.30;;;;;;4146584;28;20478;-84
2022/07/20 07:34:01;;;;;;;0.82;0.50;;;23.90;92.30;;;;;;4145724;28;20084;-84
2022/07/20 07:36:22;;;;;;;0.50;0.50;;;24.40;91.60;;;;;;4146644;28;20133;-84
2022/07/20 07:38:43;;;;;;;0.93;0.50;;;24.80;92.90;;;;;;4131680;28;20098;-84
2022/07/20 07:41:04;;;;;;;1.48;0.50;;;24.90;91.10;;;;;;4145424;28;20112;-85
2022/07/20 07:43:25;;;;;;;2.03;0.98;;;24.80;91.50;;;;;;4146680;28;20052;-85
2022/07/20 07:45:46;;;;;;;5.15;0.55;;;24.90;90.90;;;;;;4131835;28;20485;-85
2022/07/20 07:48:10;;;;;;;3.70;0.50;;;25.10;91.80;;;;;;4145241;28;20065;-85
2022/07/20 07:50:30;;;;;;;1.45;0.82;;;25.20;91.70;;;;;;4131472;28;20226;-85
2022/07/20 07:52:51;;;;;;;4.82;0.77;;;25.30;90.60;;;;;;4145498;28;20434;-85
2022/07/20 07:55:17;;;;;;;4.93;0.60;;;25.30;91.50;;;;;;4145313;28;20065;-85
2022/07/20 07:57:38;;;;;;;2.58;0.77;;;25.60;90.60;;;;;;4146310;28;20100;-85
2022/07/20 07:59:59;;;;;;;1.95;0.50;;;25.90;91.30;;;;;;4146209;28;20107;-85
2022/07/20 08:02:19;;;;;;;2.20;0.50;;;26.10;90.80;;;;;;4146130;28;20130;-85
2022/07/20 08:04:40;;;;;;;3.95;0.60;;;26.30;88.40;;;;;;4146259;28;20136;-85
2022/07/20 08:07:01;;;;;;;7.38;0.60;;;26.40;90.10;;;;;;4145353;28;20092;-85
2022/07/20 08:09:23;;;;;;;1.40;0.40;;;26.70;90.10;;;;;;4145040;28;20104;-85
2022/07/20 08:11:46;;;;;;;2.83;0.40;;;27.00;87.50;;;;;;4145952;28;20172;-85
2022/07/20 08:14:07;;;;;;;1.35;0.40;;;27.10;88.10;;;;;;4149693;28;20837;-85
2022/07/20 08:16:28;;;;;;;0.60;0.43;;;27.00;87.90;;;;;;4145088;28;20056;-85
2022/07/20 08:18:49;;;;;;;1.50;0.50;;;27.10;88.00;;;;;;4144448;28;20056;-85
2022/07/20 08:21:10;;;;;;;0.98;0.40;;;27.20;89.30;;;;;;4115327;28;20094;-85
2022/07/20 08:23:30;;;;;;;2.50;0.40;;;27.60;89.90;;;;;;4148323;28;20136;-85
2022/07/20 08:25:51;;;;;;;1.40;0.40;;;28.10;88.20;;;;;;4162423;28;20405;-86
2022/07/20 08:28:17;;;;;;;0.45;0.40;;;28.20;87.80;;;;;;4161870;28;20099;-85
2022/07/20 08:30:45;;;;;;;1.33;0.30;;;28.00;87.00;;;;;;4147350;28;20537;-85
2022/07/20 08:33:16;;;;;;;0.35;0.35;;;28.10;87.00;;;;;;4148267;28;20052;-85
2022/07/20 08:35:37;;;;;;;0.50;0.40;;;28.50;87.60;;;;;;4147201;28;20048;-85
2022/07/20 08:38:00;;;;;;;3.10;0.40;;;28.80;87.10;;;;;;4147456;28;20085;-85
2022/07/20 08:40:20;;;;;;;0.40;0.30;;;29.10;84.70;;;;;;4145785;28;20048;-85
2022/07/20 08:42:42;;;;;;;0.40;0.40;;;29.20;81.50;;;;;;4142306;28;20052;-86
2022/07/20 08:45:03;;;;;;;1.85;0.30;;;29.50;81.90;;;;;;4150076;28;20519;-85
2022/07/20 08:47:27;;;;;;;0.33;0.33;;;29.80;82.60;;;;;;4162098;28;20092;-85
2022/07/20 08:49:49;;;;;;;0.60;0.32;;;30.00;81.30;;;;;;4150632;28;20516;-85
2022/07/20 08:52:10;;;;;;;0.30;0.30;;;29.90;77.80;;;;;;4161890;28;20157;-85
2022/07/20 08:54:32;;;;;;;1.42;0.40;;;30.00;77.80;;;;;;4161942;28;20124;-84
2022/07/20 08:56:52;;;;;;;0.30;0.30;;;30.40;76.80;;;;;;4162224;28;20083;-85
2022/07/20 08:59:13;;;;;;;1.33;0.30;;;31.00;77.30;;;;;;4161884;28;20060;-85
2022/07/20 09:01:33;;;;;;;0.32;0.20;;;31.50;75.20;;;;;;4161749;28;20401;-85
2022/07/20 09:04:06;;;;;;;1.95;0.30;;;31.50;73.30;;;;;;4160939;28;20477;-85
2022/07/20 09:06:31;;;;;;;1.27;0.28;;;31.60;74.90;;;;;;4147576;28;20056;-85
2022/07/20 09:09:03;;;;;;;1.15;0.30;;;31.70;74.60;;;;;;4145425;28;20125;-85
2022/07/20 09:11:25;;;;;;;0.52;0.40;;;31.60;70.10;;;;;;4151098;28;20606;-85
2022/07/20 09:13:46;;;;;;;0.80;0.30;;;31.70;70.60;;;;;;4160390;28;20103;-85
2022/07/20 09:16:07;;;;;;;0.28;0.22;;;32.00;72.20;;;;;;4161497;28;20099;-85
2022/07/20 09:18:34;;;;;;;0.20;0.20;;;32.10;69.20;;;;;;4160639;28;20135;-85
2022/07/20 09:20:58;;;;;;;2.47;0.30;;;32.30;69.80;;;;;;4146656;28;20049;-86
2022/07/20 09:23:22;;;;;;;0.22;0.22;;;32.30;69.10;;;;;;4146479;28;20064;-85
2022/07/20 09:26:09;;;;;;;0.38;0.30;;;32.20;66.30;;;;;;4160491;28;20103;-85
2022/07/20 09:28:48;;;;;;;1.10;0.22;;;32.50;72.60;;;;;;4146815;28;20053;-85
2022/07/20 09:31:26;;;;;;;1.60;0.28;;;32.80;70.80;;;;;;4161469;28;20080;-85
2022/07/20 09:33:57;;;;;;;0.30;0.30;;;33.40;70.00;;;;;;4146493;28;20101;-85
2022/07/20 09:36:20;;;;;;;0.30;0.30;;;33.50;68.60;;;;;;4146359;28;20228;-86
2022/07/20 09:38:41;;;;;;;0.93;0.30;;;33.70;65.80;;;;;;4161473;28;20056;-85
2022/07/20 09:41:07;;;;;;;0.95;0.30;;;33.40;63.50;;;;;;4146479;28;20049;-86
2022/07/20 09:43:36;;;;;;;0.55;0.30;;;33.40;66.20;;;;;;4161549;28;20044;-86
2022/07/20 09:46:12;;;;;;;0.70;0.30;;;33.50;63.10;;;;;;4144891;28;20056;-86
2022/07/20 09:48:50;;;;;;;1.00;0.70;;;33.40;65.40;;;;;;4141372;28;20056;-86
2022/07/20 09:51:25;;;;;;;0.40;0.22;;;33.70;65.80;;;;;;4137093;28;20061;-85
2022/07/20 09:53:55;;;;;;;1.23;0.20;;;33.70;64.30;;;;;;4161089;28;20110;-85
2022/07/20 09:56:17;;;;;;;0.30;0.30;;;33.40;61.50;;;;;;4146335;28;20129;-86
2022/07/20 09:58:38;;;;;;;1.75;0.30;;;33.50;62.90;;;;;;4146150;28;20101;-86
2022/07/20 10:01:00;;;;;;;1.48;0.22;;;33.70;63.40;;;;;;4146336;28;20133;-86
2022/07/20 10:03:25;;;;;;;0.30;0.30;;;34.00;62.70;;;;;;4160486;28;22004;-86
2022/07/20 10:05:46;;;;;;;2.30;0.32;;;34.10;65.20;;;;;;4161151;28;20508;-86
2022/07/20 10:08:07;;;;;;;1.15;0.30;;;34.30;63.00;;;;;;4161664;28;20432;-86
2022/07/20 10:10:29;;;;;;;1.38;0.30;;;34.30;63.60;;;;;;4145724;28;20077;-86
2022/07/20 10:12:51;;;;;;;;;;;34.80;66.90;;;;;;4167351;28;20530;-85
2022/07/20 10:15:23;;;;;;;1.10;0.30;;;34.50;63.10;;;;;;4146967;28;19932;-86
2022/07/20 10:17:44;;;;;;;0.30;0.30;;;34.40;60.80;;;;;;4162318;28;20048;-85
2022/07/20 10:20:07;;;;;;;;;;;34.10;62.10;;;;;;4157279;28;20053;-85
2022/07/20 10:22:28;;;;;;;2.25;0.30;;;34.00;60.60;;;;;;4159989;28;20013;-85
2022/07/20 10:25:17;;;;;;;0.30;0.30;;;34.70;65.70;;;;;;4146481;28;20061;-86
2022/07/20 10:27:38;;;;;;;0.60;0.30;;;34.60;62.00;;;;;;4134531;28;20124;-86
2022/07/20 10:30:15;;;;;;;1.20;0.30;;;34.20;61.50;;;;;;4144804;28;20053;-85
2022/07/20 10:32:53;;;;;;;2.28;0.30;;;33.90;61.40;;;;;;4157760;28;20052;-86
2022/07/20 10:35:30;;;;;;;0.30;0.30;;;34.20;59.10;;;;;;4146108;28;20056;-86
2022/07/20 10:37:52;;;;;;;0.98;0.30;;;34.40;61.70;;;;;;4159198;28;20103;-86
2022/07/20 10:40:22;;;;;;;0.35;0.30;;;34.80;62.20;;;;;;4145811;28;20081;-85
2022/07/20 10:43:03;;;;;;;2.22;0.30;;;35.00;56.90;;;;;;4145134;28;20123;-86
2022/07/20 10:45:24;;;;;;;0.40;0.40;;;34.90;58.20;;;;;;4145586;28;20049;-85
2022/07/20 10:47:54;;;;;;;0.68;0.30;;;34.10;58.40;;;;;;4146473;28;20057;-86
2022/07/20 10:50:20;;;;;;;1.33;0.30;;;34.20;60.60;;;;;;4155573;28;20044;-86
2022/07/20 10:52:41;;;;;;;0.73;0.40;;;34.50;58.60;;;;;;4179458;28;20118;-86
2022/07/20 10:55:03;;;;;;;0.40;0.40;;;35.00;58.40;;;;;;4164029;28;20111;-85
2022/07/20 10:57:25;;;;;;;1.58;0.30;;;35.10;61.40;;;;;;4164129;28;20492;-86
2022/07/20 10:59:45;;;;;;;0.85;0.30;;;35.10;57.80;;;;;;4170521;28;20071;-86
2022/07/20 11:02:08;;;;;;;1.15;0.30;;;34.80;58.00;;;;;;4147180;28;20148;-86
2022/07/20 11:04:29;;;;;;;2.78;0.30;;;35.10;60.30;;;;;;4147213;28;20779;-86
2022/07/20 11:06:49;;;;;;;0.50;0.30;;;35.30;58.70;;;;;;4147498;28;20069;-87
2022/07/20 11:09:11;;;;;;;0.60;0.40;;;35.30;58.30;;;;;;4151625;28;20683;-86
2022/07/20 11:11:34;;;;;;;0.40;0.30;;;35.10;57.50;;;;;;4141439;28;20072;-86
2022/07/20 11:13:56;;;;;;;1.60;0.40;;;35.50;60.80;;;;;;4147591;28;20155;-87
2022/07/20 11:16:19;;;;;;;0.32;0.32;;;36.00;62.10;;;;;;4142540;28;20653;-87
2022/07/20 11:18:41;;;;;;;0.38;0.38;;;35.90;56.80;;;;;;4147179;28;20060;-86
2022/07/20 11:21:04;;;;;;;0.95;0.40;;;36.00;57.50;;;;;;4149005;28;20798;-87
2022/07/20 11:23:37;;;;;;;1.30;0.30;;;36.10;56.40;;;;;;4163241;28;20135;-87
2022/07/20 11:26:00;;;;;;;0.77;0.40;;;35.80;55.00;;;;;;4163489;28;20573;-87
2022/07/20 11:28:25;;;;;;;0.30;0.30;;;35.90;56.50;;;;;;4163730;28;20052;-87
2022/07/20 11:30:46;;;;;;;1.13;0.30;;;36.40;58.70;;;;;;4163726;28;20048;-86
2022/07/20 11:33:07;;;;;;;;;;;36.40;55.50;;;;;;4148524;28;20172;-87
2022/07/20 11:35:28;;;;;;;0.30;0.30;;;36.00;57.60;;;;;;4169009;28;19932;-87
2022/07/20 11:37:51;;;;;;;0.30;0.30;;;36.10;56.40;;;;;;4163415;28;20064;-86
2022/07/20 11:40:17;;;;;;;0.93;0.30;;;35.80;58.30;;;;;;4163255;28;20617;-87
2022/07/20 11:42:37;;;;;;;0.50;0.30;;;36.10;55.90;;;;;;4163072;28;20047;-89
2022/07/20 11:44:59;;;;;;;0.30;0.30;;;36.30;55.30;;;;;;4140566;28;20135;-90
2022/07/20 11:47:20;;;;;;;1.60;0.30;;;36.00;55.50;;;;;;4148794;28;20048;-90
2022/07/20 11:49:41;;;;;;;0.73;0.50;;;36.00;53.10;;;;;;4149077;28;20049;-89
2022/07/20 11:52:05;;;;;;;0.90;0.30;;;36.10;52.70;;;;;;4162547;28;20092;-89
2022/07/20 11:54:33;;;;;;;0.88;0.50;;;36.30;54.30;;;;;;4153981;28;20056;-88
2022/07/20 11:56:55;;;;;;;0.30;0.30;;;36.00;54.30;;;;;;4163245;28;20059;-89
2022/07/20 11:59:15;;;;;;;2.38;0.30;;;36.30;54.60;;;;;;4148888;28;20665;-90
2022/07/20 12:01:37;;;;;;;1.90;0.30;;;36.10;55.10;;;;;;4163263;28;20421;-88
2022/07/20 12:03:59;;;;;;;;;;;35.80;57.50;;;;;;4162950;28;20132;-88
2022/07/20 12:06:20;;;;;;;0.30;0.30;;;36.10;57.50;;;;;;4148123;28;20435;-89
2022/07/20 12:08:42;;;;;;;0.32;0.30;;;35.90;53.80;;;;;;4160477;28;20133;-89
2022/07/20 12:11:04;;;;;;;0.38;0.38;;;36.30;57.40;;;;;;4166366;28;20067;-89
2022/07/20 12:13:26;;;;;;;1.52;0.40;;;36.60;55.20;;;;;;4174146;28;20076;-89
2022/07/20 12:15:59;;;;;;;0.98;0.30;;;36.30;54.80;;;;;;4148534;28;20088;-89
2022/07/20 12:18:35;;;;;;;1.17;0.32;;;36.30;56.50;;;;;;4135988;28;20074;-88
2022/07/20 12:21:01;;;;;;;0.30;0.30;;;36.60;58.60;;;;;;4156979;28;20129;-88
2022/07/20 12:23:25;;;;;;;0.40;0.40;;;37.20;56.30;;;;;;4148005;28;20436;-88
2022/07/20 12:25:47;;;;;;;0.65;0.20;;;37.20;55.90;;;;;;4144971;28;20653;-89
2022/07/20 12:28:07;;;;;;;0.57;0.57;;;37.50;55.30;;;;;;4146932;28;20112;-88